sensor_id;sensor_type;location;lat;lon;timestamp;temperature;humidity
2226;DHT22;1119;48.288;8.726;2022-10-31T00:01:30;13.80;93.20
2226;DHT22;1119;48.288;8.726;2022-10-31T00:04:00;14.20;93.50
2226;DHT22;1119;48.288;8.726;2022-10-31T00:06:27;14.20;93.30
2226;DHT22;1119;48.288;8.726;2022-10-31T00:08:57;14.10;93.30
2226;DHT22;1119;48.288;8.726;2022-10-31T00:11:27;15.20;93.80
2226;DHT22;1119;48.288;8.726;2022-10-31T00:13:56;14.90;93.40
2226;DHT22;1119;48.288;8.726;2022-10-31T00:16:25;14.20;92.80
2226;DHT22;1119;48.288;8.726;2022-10-31T00:18:55;14.20;92.50
2226;DHT22;1119;48.288;8.726;2022-10-31T00:21:26;14.20;92.40
2226;DHT22;1119;48.288;8.726;2022-10-31T00:23:53;14.20;92.20
2226;DHT22;1119;48.288;8.726;2022-10-31T00:26:21;14.90;92.50
2226;DHT22;1119;48.288;8.726;2022-10-31T00:28:48;14.70;92.40
2226;DHT22;1119;48.288;8.726;2022-10-31T00:31:16;14.30;92.10
2226;DHT22;1119;48.288;8.726;2022-10-31T00:33:44;14.20;92.10
2226;DHT22;1119;48.288;8.726;2022-10-31T00:36:13;14.20;92.30
2226;DHT22;1119;48.288;8.726;2022-10-31T00:38:43;14.20;92.10
2226;DHT22;1119;48.288;8.726;2022-10-31T00:41:12;14.20;92.20
2226;DHT22;1119;48.288;8.726;2022-10-31T00:43:40;14.20;92.10
2226;DHT22;1119;48.288;8.726;2022-10-31T00:46:08;13.20;91.50
2226;DHT22;1119;48.288;8.726;2022-10-31T00:48:35;14.10;91.90
2226;DHT22;1119;48.288;8.726;2022-10-31T00:51:03;14.10;91.80
2226;DHT22;1119;48.288;8.726;2022-10-31T00:53:30;14.00;91.80
2226;DHT22;1119;48.288;8.726;2022-10-31T00:55:59;14.00;91.70
2226;DHT22;1119;48.288;8.726;2022-10-31T00:58:26;14.00;91.40
2226;DHT22;1119;48.288;8.726;2022-10-31T01:00:54;14.10;91.20
2226;DHT22;1119;48.288;8.726;2022-10-31T01:03:23;14.20;90.90
2226;DHT22;1119;48.288;8.726;2022-10-31T01:05:58;14.30;90.70
2226;DHT22;1119;48.288;8.726;2022-10-31T01:08:26;14.20;90.50
2226;DHT22;1119;48.288;8.726;2022-10-31T01:11:07;14.30;90.50
2226;DHT22;1119;48.288;8.726;2022-10-31T01:13:36;14.10;90.30
2226;DHT22;1119;48.288;8.726;2022-10-31T01:16:04;14.30;90.20
2226;DHT22;1119;48.288;8.726;2022-10-31T01:18:33;14.30;89.90
2226;DHT22;1119;48.288;8.726;2022-10-31T01:21:03;14.30;89.50
2226;DHT22;1119;48.288;8.726;2022-10-31T01:23:33;14.30;89.20
2226;DHT22;1119;48.288;8.726;2022-10-31T01:26:08;14.30;88.90
2226;DHT22;1119;48.288;8.726;2022-10-31T01:28:43;14.30;88.60
2226;DHT22;1119;48.288;8.726;2022-10-31T01:31:11;14.30;88.20
2226;DHT22;1119;48.288;8.726;2022-10-31T01:33:39;14.30;88.20
2226;DHT22;1119;48.288;8.726;2022-10-31T01:36:15;14.30;88.00
2226;DHT22;1119;48.288;8.726;2022-10-31T01:38:44;14.30;87.80
2226;DHT22;1119;48.288;8.726;2022-10-31T01:41:15;14.40;87.80
2226;DHT22;1119;48.288;8.726;2022-10-31T01:43:49;14.60;87.60
2226;DHT22;1119;48.288;8.726;2022-10-31T01:46:22;14.40;87.50
2226;DHT22;1119;48.288;8.726;2022-10-31T01:48:53;14.30;87.60
2226;DHT22;1119;48.288;8.726;2022-10-31T01:51:24;14.30;87.70
2226;DHT22;1119;48.288;8.726;2022-10-31T01:53:57;14.30;87.80
2226;DHT22;1119;48.288;8.726;2022-10-31T01:56:27;14.20;87.80
2226;DHT22;1119;48.288;8.726;2022-10-31T01:58:55;14.20;87.90
2226;DHT22;1119;48.288;8.726;2022-10-31T02:01:23;14.10;87.80
2226;DHT22;1119;48.288;8.726;2022-10-31T02:03:50;14.10;88.20
2226;DHT22;1119;48.288;8.726;2022-10-31T02:06:29;14.10;88.20
2226;DHT22;1119;48.288;8.726;2022-10-31T02:09:04;14.00;88.30
2226;DHT22;1119;48.288;8.726;2022-10-31T02:11:35;14.00;88.50
2226;DHT22;1119;48.288;8.726;2022-10-31T02:14:02;14.00;88.40
2226;DHT22;1119;48.288;8.726;2022-10-31T02:16:30;13.90;88.50
2226;DHT22;1119;48.288;8.726;2022-10-31T02:18:57;13.90;88.70
2226;DHT22;1119;48.288;8.726;2022-10-31T02:21:28;13.90;89.00
2226;DHT22;1119;48.288;8.726;2022-10-31T02:24:37;13.90;89.90
2226;DHT22;1119;48.288;8.726;2022-10-31T02:27:19;13.90;90.30
2226;DHT22;1119;48.288;8.726;2022-10-31T02:30:12;13.90;90.50
2226;DHT22;1119;48.288;8.726;2022-10-31T02:33:07;13.90;90.40
2226;DHT22;1119;48.288;8.726;2022-10-31T02:35:50;13.80;90.40
2226;DHT22;1119;48.288;8.726;2022-10-31T02:38:34;13.70;90.50
2226;DHT22;1119;48.288;8.726;2022-10-31T02:41:17;13.60;90.50
2226;DHT22;1119;48.288;8.726;2022-10-31T02:43:58;13.60;90.40
2226;DHT22;1119;48.288;8.726;2022-10-31T02:46:34;13.60;90.20
2226;DHT22;1119;48.288;8.726;2022-10-31T02:49:14;13.60;90.20
2226;DHT22;1119;48.288;8.726;2022-10-31T02:51:45;13.60;90.10
2226;DHT22;1119;48.288;8.726;2022-10-31T02:54:18;13.60;90.00
2226;DHT22;1119;48.288;8.726;2022-10-31T02:56:53;13.60;89.70
2226;DHT22;1119;48.288;8.726;2022-10-31T02:59:23;13.70;89.60
2226;DHT22;1119;48.288;8.726;2022-10-31T03:02:00;13.70;89.90
2226;DHT22;1119;48.288;8.726;2022-10-31T03:04:49;13.70;89.50
2226;DHT22;1119;48.288;8.726;2022-10-31T03:07:44;13.80;89.80
2226;DHT22;1119;48.288;8.726;2022-10-31T03:10:20;13.80;89.80
2226;DHT22;1119;48.288;8.726;2022-10-31T03:13:01;13.80;89.80
2226;DHT22;1119;48.288;8.726;2022-10-31T03:15:33;13.80;90.00
2226;DHT22;1119;48.288;8.726;2022-10-31T03:18:05;13.80;89.90
2226;DHT22;1119;48.288;8.726;2022-10-31T03:20:38;13.70;90.00
2226;DHT22;1119;48.288;8.726;2022-10-31T03:23:10;13.70;90.00
2226;DHT22;1119;48.288;8.726;2022-10-31T03:25:39;13.70;90.10
2226;DHT22;1119;48.288;8.726;2022-10-31T03:28:09;13.70;90.20
2226;DHT22;1119;48.288;8.726;2022-10-31T03:30:39;13.60;90.20
2226;DHT22;1119;48.288;8.726;2022-10-31T03:33:10;13.50;90.50
2226;DHT22;1119;48.288;8.726;2022-10-31T03:35:45;13.40;90.70
2226;DHT22;1119;48.288;8.726;2022-10-31T03:38:14;13.30;91.00
2226;DHT22;1119;48.288;8.726;2022-10-31T03:40:44;13.20;91.10
2226;DHT22;1119;48.288;8.726;2022-10-31T03:43:16;13.20;91.20
2226;DHT22;1119;48.288;8.726;2022-10-31T03:45:46;13.20;91.20
2226;DHT22;1119;48.288;8.726;2022-10-31T03:48:15;13.10;91.10
2226;DHT22;1119;48.288;8.726;2022-10-31T03:50:51;13.10;91.10
2226;DHT22;1119;48.288;8.726;2022-10-31T03:53:25;13.20;91.10
2226;DHT22;1119;48.288;8.726;2022-10-31T03:56:00;13.20;91.00
2226;DHT22;1119;48.288;8.726;2022-10-31T03:58:33;13.20;91.10
2226;DHT22;1119;48.288;8.726;2022-10-31T04:01:06;13.20;91.00
2226;DHT22;1119;48.288;8.726;2022-10-31T04:03:38;13.30;91.00
2226;DHT22;1119;48.288;8.726;2022-10-31T04:06:10;13.30;90.90
2226;DHT22;1119;48.288;8.726;2022-10-31T04:08:41;13.30;90.80
2226;DHT22;1119;48.288;8.726;2022-10-31T04:11:17;13.30;90.80
2226;DHT22;1119;48.288;8.726;2022-10-31T04:14:11;13.30;90.60
2226;DHT22;1119;48.288;8.726;2022-10-31T04:16:42;13.30;90.50
2226;DHT22;1119;48.288;8.726;2022-10-31T04:19:11;13.30;90.50
2226;DHT22;1119;48.288;8.726;2022-10-31T04:21:41;13.30;90.50
2226;DHT22;1119;48.288;8.726;2022-10-31T04:24:10;13.40;90.40
2226;DHT22;1119;48.288;8.726;2022-10-31T04:26:38;13.40;90.40
2226;DHT22;1119;48.288;8.726;2022-10-31T04:29:05;13.30;90.50
2226;DHT22;1119;48.288;8.726;2022-10-31T04:31:32;13.30;90.50
2226;DHT22;1119;48.288;8.726;2022-10-31T04:33:59;13.30;90.50
2226;DHT22;1119;48.288;8.726;2022-10-31T04:36:27;13.30;90.50
2226;DHT22;1119;48.288;8.726;2022-10-31T04:38:56;13.30;90.50
2226;DHT22;1119;48.288;8.726;2022-10-31T04:41:37;13.30;90.50
2226;DHT22;1119;48.288;8.726;2022-10-31T04:44:12;13.30;90.50
2226;DHT22;1119;48.288;8.726;2022-10-31T04:46:39;13.40;90.40
2226;DHT22;1119;48.288;8.726;2022-10-31T04:49:07;13.40;90.50
2226;DHT22;1119;48.288;8.726;2022-10-31T04:51:35;13.40;90.50
2226;DHT22;1119;48.288;8.726;2022-10-31T04:54:04;13.50;90.50
2226;DHT22;1119;48.288;8.726;2022-10-31T04:57:01;13.40;90.50
2226;DHT22;1119;48.288;8.726;2022-10-31T04:59:29;13.30;90.50
2226;DHT22;1119;48.288;8.726;2022-10-31T05:01:58;13.20;90.50
2226;DHT22;1119;48.288;8.726;2022-10-31T05:04:49;13.20;90.60
2226;DHT22;1119;48.288;8.726;2022-10-31T05:07:17;13.10;90.60
2226;DHT22;1119;48.288;8.726;2022-10-31T05:09:45;13.10;90.70
2226;DHT22;1119;48.288;8.726;2022-10-31T05:12:13;13.10;90.80
2226;DHT22;1119;48.288;8.726;2022-10-31T05:14:59;13.10;90.80
2226;DHT22;1119;48.288;8.726;2022-10-31T05:17:49;13.10;90.80
2226;DHT22;1119;48.288;8.726;2022-10-31T05:20:35;13.00;91.10
2226;DHT22;1119;48.288;8.726;2022-10-31T05:23:15;13.00;90.80
2226;DHT22;1119;48.288;8.726;2022-10-31T05:25:43;12.90;90.70
2226;DHT22;1119;48.288;8.726;2022-10-31T05:28:11;12.90;90.80
2226;DHT22;1119;48.288;8.726;2022-10-31T05:30:38;12.90;90.80
2226;DHT22;1119;48.288;8.726;2022-10-31T05:33:09;12.90;90.90
2226;DHT22;1119;48.288;8.726;2022-10-31T05:35:55;12.90;91.00
2226;DHT22;1119;48.288;8.726;2022-10-31T05:38:30;12.80;91.10
2226;DHT22;1119;48.288;8.726;2022-10-31T05:41:07;12.90;91.10
2226;DHT22;1119;48.288;8.726;2022-10-31T05:43:35;12.80;91.00
2226;DHT22;1119;48.288;8.726;2022-10-31T05:46:05;12.90;90.90
2226;DHT22;1119;48.288;8.726;2022-10-31T05:48:55;12.90;90.80
2226;DHT22;1119;48.288;8.726;2022-10-31T05:51:41;12.90;90.70
2226;DHT22;1119;48.288;8.726;2022-10-31T05:54:08;12.90;90.80
2226;DHT22;1119;48.288;8.726;2022-10-31T05:56:38;12.90;90.80
2226;DHT22;1119;48.288;8.726;2022-10-31T05:59:05;12.90;90.90
2226;DHT22;1119;48.288;8.726;2022-10-31T06:01:32;12.80;90.90
2226;DHT22;1119;48.288;8.726;2022-10-31T06:04:04;12.80;90.90
2226;DHT22;1119;48.288;8.726;2022-10-31T06:06:33;12.70;90.90
2226;DHT22;1119;48.288;8.726;2022-10-31T06:09:01;12.70;92.10
2226;DHT22;1119;48.288;8.726;2022-10-31T06:11:32;12.70;91.20
2226;DHT22;1119;48.288;8.726;2022-10-31T06:14:03;12.60;91.30
2226;DHT22;1119;48.288;8.726;2022-10-31T06:16:42;12.60;91.60
2226;DHT22;1119;48.288;8.726;2022-10-31T06:19:28;12.40;92.00
2226;DHT22;1119;48.288;8.726;2022-10-31T06:21:55;12.30;92.40
2226;DHT22;1119;48.288;8.726;2022-10-31T06:24:22;12.30;92.60
2226;DHT22;1119;48.288;8.726;2022-10-31T06:26:52;12.30;92.70
2226;DHT22;1119;48.288;8.726;2022-10-31T06:29:22;12.20;92.60
2226;DHT22;1119;48.288;8.726;2022-10-31T06:32:09;12.60;92.60
2226;DHT22;1119;48.288;8.726;2022-10-31T06:34:41;13.60;92.50
2226;DHT22;1119;48.288;8.726;2022-10-31T06:37:10;13.00;91.70
2226;DHT22;1119;48.288;8.726;2022-10-31T06:39:42;13.10;91.40
2226;DHT22;1119;48.288;8.726;2022-10-31T06:42:12;13.10;91.20
2226;DHT22;1119;48.288;8.726;2022-10-31T06:44:40;13.10;91.10
2226;DHT22;1119;48.288;8.726;2022-10-31T06:47:26;13.10;91.20
2226;DHT22;1119;48.288;8.726;2022-10-31T06:50:01;13.00;91.40
2226;DHT22;1119;48.288;8.726;2022-10-31T06:52:28;13.00;91.60
2226;DHT22;1119;48.288;8.726;2022-10-31T06:54:55;13.40;91.80
2226;DHT22;1119;48.288;8.726;2022-10-31T06:57:22;13.20;91.70
2226;DHT22;1119;48.288;8.726;2022-10-31T06:59:51;13.70;90.90
2226;DHT22;1119;48.288;8.726;2022-10-31T07:02:43;14.10;90.10
2226;DHT22;1119;48.288;8.726;2022-10-31T07:05:10;14.20;88.70
2226;DHT22;1119;48.288;8.726;2022-10-31T07:07:37;14.30;88.30
2226;DHT22;1119;48.288;8.726;2022-10-31T07:10:06;14.30;88.20
2226;DHT22;1119;48.288;8.726;2022-10-31T07:12:45;14.30;88.80
2226;DHT22;1119;48.288;8.726;2022-10-31T07:15:15;14.50;89.40
2226;DHT22;1119;48.288;8.726;2022-10-31T07:17:42;14.50;90.20
2226;DHT22;1119;48.288;8.726;2022-10-31T07:20:10;14.60;90.60
2226;DHT22;1119;48.288;8.726;2022-10-31T07:22:37;14.60;90.30
2226;DHT22;1119;48.288;8.726;2022-10-31T07:25:24;14.70;90.20
2226;DHT22;1119;48.288;8.726;2022-10-31T07:28:13;15.50;90.30
2226;DHT22;1119;48.288;8.726;2022-10-31T07:30:50;14.70;90.00
2226;DHT22;1119;48.288;8.726;2022-10-31T07:33:22;14.80;90.60
2226;DHT22;1119;48.288;8.726;2022-10-31T07:36:13;14.90;90.60
2226;DHT22;1119;48.288;8.726;2022-10-31T07:38:46;14.90;90.90
2226;DHT22;1119;48.288;8.726;2022-10-31T07:41:21;14.80;91.20
2226;DHT22;1119;48.288;8.726;2022-10-31T07:43:54;14.70;91.40
2226;DHT22;1119;48.288;8.726;2022-10-31T07:46:44;14.60;91.30
2226;DHT22;1119;48.288;8.726;2022-10-31T07:49:43;14.60;91.30
2226;DHT22;1119;48.288;8.726;2022-10-31T07:52:23;14.60;91.40
2226;DHT22;1119;48.288;8.726;2022-10-31T07:55:20;14.70;91.60
2226;DHT22;1119;48.288;8.726;2022-10-31T07:57:58;14.80;91.50
2226;DHT22;1119;48.288;8.726;2022-10-31T08:00:30;14.70;91.20
2226;DHT22;1119;48.288;8.726;2022-10-31T08:03:04;14.50;90.70
2226;DHT22;1119;48.288;8.726;2022-10-31T08:05:47;14.30;90.70
2226;DHT22;1119;48.288;8.726;2022-10-31T08:08:44;14.20;91.00
2226;DHT22;1119;48.288;8.726;2022-10-31T08:11:16;14.20;91.70
2226;DHT22;1119;48.288;8.726;2022-10-31T08:13:50;14.20;92.10
2226;DHT22;1119;48.288;8.726;2022-10-31T08:16:21;14.90;92.50
2226;DHT22;1119;48.288;8.726;2022-10-31T08:18:58;14.20;92.00
2226;DHT22;1119;48.288;8.726;2022-10-31T08:21:33;13.90;92.00
2226;DHT22;1119;48.288;8.726;2022-10-31T08:24:05;13.90;92.30
2226;DHT22;1119;48.288;8.726;2022-10-31T08:26:37;13.90;92.40
2226;DHT22;1119;48.288;8.726;2022-10-31T08:29:12;13.80;92.40
2226;DHT22;1119;48.288;8.726;2022-10-31T08:31:47;13.70;92.40
2226;DHT22;1119;48.288;8.726;2022-10-31T08:34:41;13.80;92.70
2226;DHT22;1119;48.288;8.726;2022-10-31T08:37:30;13.80;92.90
2226;DHT22;1119;48.288;8.726;2022-10-31T08:40:05;13.80;93.20
2226;DHT22;1119;48.288;8.726;2022-10-31T08:42:37;13.90;93.10
2226;DHT22;1119;48.288;8.726;2022-10-31T08:45:12;13.90;93.10
2226;DHT22;1119;48.288;8.726;2022-10-31T08:47:43;14.00;93.00
2226;DHT22;1119;48.288;8.726;2022-10-31T08:50:15;14.10;93.00
2226;DHT22;1119;48.288;8.726;2022-10-31T08:52:48;14.20;92.70
2226;DHT22;1119;48.288;8.726;2022-10-31T08:55:21;14.30;92.40
2226;DHT22;1119;48.288;8.726;2022-10-31T08:58:04;14.50;92.10
2226;DHT22;1119;48.288;8.726;2022-10-31T09:00:45;14.70;91.40
2226;DHT22;1119;48.288;8.726;2022-10-31T09:03:23;14.80;90.90
2226;DHT22;1119;48.288;8.726;2022-10-31T09:05:57;14.80;90.40
2226;DHT22;1119;48.288;8.726;2022-10-31T09:08:40;14.90;90.60
2226;DHT22;1119;48.288;8.726;2022-10-31T09:11:14;14.90;90.50
2226;DHT22;1119;48.288;8.726;2022-10-31T09:14:04;15.00;90.70
2226;DHT22;1119;48.288;8.726;2022-10-31T09:16:40;15.10;91.10
2226;DHT22;1119;48.288;8.726;2022-10-31T09:19:19;15.10;91.50
2226;DHT22;1119;48.288;8.726;2022-10-31T09:21:52;15.20;91.80
2226;DHT22;1119;48.288;8.726;2022-10-31T09:24:24;15.40;92.00
2226;DHT22;1119;48.288;8.726;2022-10-31T09:26:56;15.50;92.40
2226;DHT22;1119;48.288;8.726;2022-10-31T09:29:29;15.70;92.00
2226;DHT22;1119;48.288;8.726;2022-10-31T09:32:04;15.90;91.80
2226;DHT22;1119;48.288;8.726;2022-10-31T09:34:41;16.00;91.20
2226;DHT22;1119;48.288;8.726;2022-10-31T09:37:16;16.20;90.50
2226;DHT22;1119;48.288;8.726;2022-10-31T09:39:47;16.40;91.30
2226;DHT22;1119;48.288;8.726;2022-10-31T09:42:42;16.50;91.10
2226;DHT22;1119;48.288;8.726;2022-10-31T09:45:28;16.60;91.00
2226;DHT22;1119;48.288;8.726;2022-10-31T09:48:31;16.70;91.00
2226;DHT22;1119;48.288;8.726;2022-10-31T09:51:25;16.70;90.90
2226;DHT22;1119;48.288;8.726;2022-10-31T09:54:12;16.80;90.70
2226;DHT22;1119;48.288;8.726;2022-10-31T09:56:46;16.70;90.70
2226;DHT22;1119;48.288;8.726;2022-10-31T09:59:29;16.80;90.70
2226;DHT22;1119;48.288;8.726;2022-10-31T10:02:05;16.80;90.90
2226;DHT22;1119;48.288;8.726;2022-10-31T10:04:51;16.80;91.10
2226;DHT22;1119;48.288;8.726;2022-10-31T10:07:35;16.80;91.20
2226;DHT22;1119;48.288;8.726;2022-10-31T10:10:32;17.00;91.20
2226;DHT22;1119;48.288;8.726;2022-10-31T10:13:47;17.10;90.90
2226;DHT22;1119;48.288;8.726;2022-10-31T10:16:39;17.40;90.60
2226;DHT22;1119;48.288;8.726;2022-10-31T10:19:40;17.60;90.30
2226;DHT22;1119;48.288;8.726;2022-10-31T10:22:24;17.90;89.90
2226;DHT22;1119;48.288;8.726;2022-10-31T10:25:14;18.20;88.60
2226;DHT22;1119;48.288;8.726;2022-10-31T10:28:06;18.40;88.00
2226;DHT22;1119;48.288;8.726;2022-10-31T10:30:43;18.40;87.30
2226;DHT22;1119;48.288;8.726;2022-10-31T10:33:20;18.30;87.80
2226;DHT22;1119;48.288;8.726;2022-10-31T10:35:59;18.30;86.80
2226;DHT22;1119;48.288;8.726;2022-10-31T10:38:36;18.40;86.60
2226;DHT22;1119;48.288;8.726;2022-10-31T10:41:12;18.40;86.20
2226;DHT22;1119;48.288;8.726;2022-10-31T10:43:49;18.60;85.30
2226;DHT22;1119;48.288;8.726;2022-10-31T10:46:26;18.70;83.80
2226;DHT22;1119;48.288;8.726;2022-10-31T10:49:18;18.90;81.40
2226;DHT22;1119;48.288;8.726;2022-10-31T10:51:59;19.10;79.60
2226;DHT22;1119;48.288;8.726;2022-10-31T10:54:44;19.00;76.70
2226;DHT22;1119;48.288;8.726;2022-10-31T10:57:27;19.10;78.10
2226;DHT22;1119;48.288;8.726;2022-10-31T11:00:19;19.10;77.80
2226;DHT22;1119;48.288;8.726;2022-10-31T11:02:51;19.10;77.50
2226;DHT22;1119;48.288;8.726;2022-10-31T11:05:26;19.20;78.20
2226;DHT22;1119;48.288;8.726;2022-10-31T11:08:03;19.30;77.70
2226;DHT22;1119;48.288;8.726;2022-10-31T11:10:36;19.30;77.00
2226;DHT22;1119;48.288;8.726;2022-10-31T11:13:21;19.30;75.90
2226;DHT22;1119;48.288;8.726;2022-10-31T11:15:57;19.30;75.50
2226;DHT22;1119;48.288;8.726;2022-10-31T11:18:34;19.30;75.40
2226;DHT22;1119;48.288;8.726;2022-10-31T11:21:20;19.30;74.80
2226;DHT22;1119;48.288;8.726;2022-10-31T11:24:04;19.40;75.90
2226;DHT22;1119;48.288;8.726;2022-10-31T11:26:46;19.50;76.60
2226;DHT22;1119;48.288;8.726;2022-10-31T11:29:22;19.40;77.50
2226;DHT22;1119;48.288;8.726;2022-10-31T11:31:55;19.40;76.40
2226;DHT22;1119;48.288;8.726;2022-10-31T11:34:30;19.40;78.30
2226;DHT22;1119;48.288;8.726;2022-10-31T11:37:09;19.50;79.20
2226;DHT22;1119;48.288;8.726;2022-10-31T11:39:49;19.50;80.30
2226;DHT22;1119;48.288;8.726;2022-10-31T11:42:27;19.50;81.50
2226;DHT22;1119;48.288;8.726;2022-10-31T11:45:00;19.60;81.60
2226;DHT22;1119;48.288;8.726;2022-10-31T11:47:35;19.60;82.40
2226;DHT22;1119;48.288;8.726;2022-10-31T11:50:11;19.50;82.90
2226;DHT22;1119;48.288;8.726;2022-10-31T11:52:49;19.60;82.80
2226;DHT22;1119;48.288;8.726;2022-10-31T11:55:32;19.60;81.80
2226;DHT22;1119;48.288;8.726;2022-10-31T11:58:20;19.50;81.60
2226;DHT22;1119;48.288;8.726;2022-10-31T12:00:54;19.40;81.50
2226;DHT22;1119;48.288;8.726;2022-10-31T12:03:42;19.50;81.40
2226;DHT22;1119;48.288;8.726;2022-10-31T12:06:22;19.50;81.30
2226;DHT22;1119;48.288;8.726;2022-10-31T12:08:55;19.40;82.50
2226;DHT22;1119;48.288;8.726;2022-10-31T12:11:46;19.30;82.20
2226;DHT22;1119;48.288;8.726;2022-10-31T12:14:31;19.30;82.80
2226;DHT22;1119;48.288;8.726;2022-10-31T12:17:11;19.30;82.50
2226;DHT22;1119;48.288;8.726;2022-10-31T12:19:50;19.30;81.90
2226;DHT22;1119;48.288;8.726;2022-10-31T12:22:36;19.30;80.00
2226;DHT22;1119;48.288;8.726;2022-10-31T12:25:23;19.30;78.90
2226;DHT22;1119;48.288;8.726;2022-10-31T12:28:27;19.20;78.10
2226;DHT22;1119;48.288;8.726;2022-10-31T12:34:38;19.20;80.50
2226;DHT22;1119;48.288;8.726;2022-10-31T12:37:37;19.20;81.20
2226;DHT22;1119;48.288;8.726;2022-10-31T12:40:33;19.30;81.20
2226;DHT22;1119;48.288;8.726;2022-10-31T12:43:36;19.40;78.80
2226;DHT22;1119;48.288;8.726;2022-10-31T12:46:20;19.40;80.90
2226;DHT22;1119;48.288;8.726;2022-10-31T12:52:19;19.50;77.40
2226;DHT22;1119;48.288;8.726;2022-10-31T12:55:09;19.60;76.20
2226;DHT22;1119;48.288;8.726;2022-10-31T12:57:52;19.70;75.20
2226;DHT22;1119;48.288;8.726;2022-10-31T13:00:33;19.70;76.50
2226;DHT22;1119;48.288;8.726;2022-10-31T13:03:23;19.70;77.10
2226;DHT22;1119;48.288;8.726;2022-10-31T13:06:02;19.70;76.80
2226;DHT22;1119;48.288;8.726;2022-10-31T13:08:39;19.60;77.20
2226;DHT22;1119;48.288;8.726;2022-10-31T13:11:16;19.70;78.10
2226;DHT22;1119;48.288;8.726;2022-10-31T13:13:55;19.70;77.90
2226;DHT22;1119;48.288;8.726;2022-10-31T13:16:34;19.70;79.70
2226;DHT22;1119;48.288;8.726;2022-10-31T13:19:13;19.90;79.60
2226;DHT22;1119;48.288;8.726;2022-10-31T13:21:54;20.00;78.20
2226;DHT22;1119;48.288;8.726;2022-10-31T13:24:32;20.10;74.90
2226;DHT22;1119;48.288;8.726;2022-10-31T13:27:13;20.10;76.50
2226;DHT22;1119;48.288;8.726;2022-10-31T13:29:56;20.00;77.00
2226;DHT22;1119;48.288;8.726;2022-10-31T13:32:40;20.20;78.30
2226;DHT22;1119;48.288;8.726;2022-10-31T13:35:20;19.80;78.10
2226;DHT22;1119;48.288;8.726;2022-10-31T13:38:05;19.90;78.50
2226;DHT22;1119;48.288;8.726;2022-10-31T13:40:47;19.80;78.80
2226;DHT22;1119;48.288;8.726;2022-10-31T13:43:31;19.70;79.50
2226;DHT22;1119;48.288;8.726;2022-10-31T13:46:22;19.60;80.30
2226;DHT22;1119;48.288;8.726;2022-10-31T13:48:58;19.50;77.40
2226;DHT22;1119;48.288;8.726;2022-10-31T13:51:31;19.50;78.40
2226;DHT22;1119;48.288;8.726;2022-10-31T13:54:19;19.50;78.30
2226;DHT22;1119;48.288;8.726;2022-10-31T13:56:52;19.50;78.10
2226;DHT22;1119;48.288;8.726;2022-10-31T13:59:26;19.40;78.40
2226;DHT22;1119;48.288;8.726;2022-10-31T14:02:01;19.40;79.40
2226;DHT22;1119;48.288;8.726;2022-10-31T14:04:48;19.40;79.80
2226;DHT22;1119;48.288;8.726;2022-10-31T14:07:24;19.50;77.60
2226;DHT22;1119;48.288;8.726;2022-10-31T14:10:02;19.40;76.50
2226;DHT22;1119;48.288;8.726;2022-10-31T14:12:40;19.50;77.50
2226;DHT22;1119;48.288;8.726;2022-10-31T14:15:15;19.30;77.60
2226;DHT22;1119;48.288;8.726;2022-10-31T14:17:49;19.30;77.80
2226;DHT22;1119;48.288;8.726;2022-10-31T14:20:38;19.40;77.80
2226;DHT22;1119;48.288;8.726;2022-10-31T14:26:18;19.50;78.90
2226;DHT22;1119;48.288;8.726;2022-10-31T14:28:53;19.60;80.10
2226;DHT22;1119;48.288;8.726;2022-10-31T14:31:39;19.60;81.20
2226;DHT22;1119;48.288;8.726;2022-10-31T14:34:23;19.60;80.60
2226;DHT22;1119;48.288;8.726;2022-10-31T14:40:19;19.50;81.00
2226;DHT22;1119;48.288;8.726;2022-10-31T14:43:14;19.50;80.60
2226;DHT22;1119;48.288;8.726;2022-10-31T14:46:01;19.40;80.90
2226;DHT22;1119;48.288;8.726;2022-10-31T14:48:46;19.40;82.40
2226;DHT22;1119;48.288;8.726;2022-10-31T14:51:29;19.40;83.70
2226;DHT22;1119;48.288;8.726;2022-10-31T14:54:12;19.20;82.40
2226;DHT22;1119;48.288;8.726;2022-10-31T14:56:48;19.10;82.10
2226;DHT22;1119;48.288;8.726;2022-10-31T14:59:24;19.10;82.50
2226;DHT22;1119;48.288;8.726;2022-10-31T15:02:01;19.10;83.10
2226;DHT22;1119;48.288;8.726;2022-10-31T15:04:38;19.10;83.50
2226;DHT22;1119;48.288;8.726;2022-10-31T15:07:12;19.10;83.80
2226;DHT22;1119;48.288;8.726;2022-10-31T15:09:55;19.10;83.90
2226;DHT22;1119;48.288;8.726;2022-10-31T15:12:28;19.10;83.10
2226;DHT22;1119;48.288;8.726;2022-10-31T15:15:12;19.20;83.30
2226;DHT22;1119;48.288;8.726;2022-10-31T15:17:45;19.20;83.50
2226;DHT22;1119;48.288;8.726;2022-10-31T15:20:23;19.20;83.40
2226;DHT22;1119;48.288;8.726;2022-10-31T15:22:57;19.20;83.70
2226;DHT22;1119;48.288;8.726;2022-10-31T15:25:34;19.10;84.00
2226;DHT22;1119;48.288;8.726;2022-10-31T15:28:14;19.10;85.30
2226;DHT22;1119;48.288;8.726;2022-10-31T15:30:55;19.10;85.80
2226;DHT22;1119;48.288;8.726;2022-10-31T15:33:29;19.00;86.00
2226;DHT22;1119;48.288;8.726;2022-10-31T15:36:02;18.90;86.60
2226;DHT22;1119;48.288;8.726;2022-10-31T15:38:34;18.70;87.50
2226;DHT22;1119;48.288;8.726;2022-10-31T15:41:22;18.80;88.80
2226;DHT22;1119;48.288;8.726;2022-10-31T15:44:03;18.70;90.00
2226;DHT22;1119;48.288;8.726;2022-10-31T15:46:39;18.50;90.40
2226;DHT22;1119;48.288;8.726;2022-10-31T15:49:20;18.40;90.90
2226;DHT22;1119;48.288;8.726;2022-10-31T15:52:03;18.30;91.20
2226;DHT22;1119;48.288;8.726;2022-10-31T15:54:47;18.30;91.40
2226;DHT22;1119;48.288;8.726;2022-10-31T15:57:22;18.20;91.70
2226;DHT22;1119;48.288;8.726;2022-10-31T15:59:55;18.10;91.90
2226;DHT22;1119;48.288;8.726;2022-10-31T16:02:27;18.10;92.20
2226;DHT22;1119;48.288;8.726;2022-10-31T16:05:01;18.00;92.00
2226;DHT22;1119;48.288;8.726;2022-10-31T16:07:49;17.90;92.30
2226;DHT22;1119;48.288;8.726;2022-10-31T16:10:25;17.90;92.50
2226;DHT22;1119;48.288;8.726;2022-10-31T16:13:00;17.90;92.70
2226;DHT22;1119;48.288;8.726;2022-10-31T16:15:34;17.80;92.80
2226;DHT22;1119;48.288;8.726;2022-10-31T16:18:11;17.70;92.80
2226;DHT22;1119;48.288;8.726;2022-10-31T16:20:49;17.70;92.90
2226;DHT22;1119;48.288;8.726;2022-10-31T16:23:23;17.70;93.00
2226;DHT22;1119;48.288;8.726;2022-10-31T16:25:56;17.60;93.20
2226;DHT22;1119;48.288;8.726;2022-10-31T16:28:29;17.60;93.30
2226;DHT22;1119;48.288;8.726;2022-10-31T16:31:00;17.60;93.50
2226;DHT22;1119;48.288;8.726;2022-10-31T16:33:33;17.60;93.70
2226;DHT22;1119;48.288;8.726;2022-10-31T16:36:30;17.60;93.90
2226;DHT22;1119;48.288;8.726;2022-10-31T16:39:03;17.50;94.00
2226;DHT22;1119;48.288;8.726;2022-10-31T16:41:39;17.30;94.10
2226;DHT22;1119;48.288;8.726;2022-10-31T16:44:21;17.40;94.30
2226;DHT22;1119;48.288;8.726;2022-10-31T16:47:09;17.30;94.50
2226;DHT22;1119;48.288;8.726;2022-10-31T16:49:42;17.30;94.90
2226;DHT22;1119;48.288;8.726;2022-10-31T16:52:14;17.20;95.00
2226;DHT22;1119;48.288;8.726;2022-10-31T16:54:46;17.20;95.00
2226;DHT22;1119;48.288;8.726;2022-10-31T16:57:20;17.10;95.10
2226;DHT22;1119;48.288;8.726;2022-10-31T16:59:57;17.10;95.20
2226;DHT22;1119;48.288;8.726;2022-10-31T17:02:29;17.10;95.40
2226;DHT22;1119;48.288;8.726;2022-10-31T17:05:00;17.00;95.60
2226;DHT22;1119;48.288;8.726;2022-10-31T17:07:33;17.00;95.70
2226;DHT22;1119;48.288;8.726;2022-10-31T17:10:05;17.00;95.80
2226;DHT22;1119;48.288;8.726;2022-10-31T17:12:38;17.00;95.90
2226;DHT22;1119;48.288;8.726;2022-10-31T17:15:18;17.00;96.10
2226;DHT22;1119;48.288;8.726;2022-10-31T17:17:50;17.00;96.20